createdAt,value
2022-09-23T00:01:03.002Z,13.40
2022-09-23T00:03:31.350Z,13.40
2022-09-23T00:06:02.863Z,13.40
2022-09-23T00:08:30.263Z,13.30
2022-09-23T00:10:58.118Z,13.30
2022-09-23T00:13:25.985Z,13.30
2022-09-23T00:15:53.269Z,13.30
2022-09-23T00:18:21.271Z,13.30
2022-09-23T00:20:48.476Z,13.30
2022-09-23T00:23:15.682Z,13.20
2022-09-23T00:25:42.891Z,13.20
2022-09-23T00:28:10.200Z,13.20
2022-09-23T00:30:37.437Z,13.20
2022-09-23T00:33:04.700Z,13.10
2022-09-23T00:35:32.053Z,13.10
2022-09-23T00:38:01.629Z,13.10
2022-09-23T00:40:29.020Z,13.10
2022-09-23T00:42:56.312Z,13.00
2022-09-23T00:45:23.680Z,13.00
2022-09-23T00:47:54.991Z,13.00
2022-09-23T00:50:36.704Z,12.90
2022-09-23T00:53:08.632Z,12.90
2022-09-23T00:56:05.014Z,12.90
2022-09-23T00:58:33.329Z,12.90
2022-09-23T01:01:01.598Z,12.80
2022-09-23T01:03:29.090Z,12.80
2022-09-23T01:05:57.136Z,12.80
2022-09-23T01:08:24.937Z,12.80
2022-09-23T01:11:18.874Z,12.80
2022-09-23T01:14:19.210Z,12.80
2022-09-23T01:17:07.629Z,12.80
2022-09-23T01:19:57.957Z,12.80
2022-09-23T01:22:29.851Z,12.80
2022-09-23T01:25:15.962Z,12.80
2022-09-23T01:27:49.082Z,12.80
2022-09-23T01:30:30.344Z,12.70
2022-09-23T01:33:08.356Z,12.70
2022-09-23T01:35:44.679Z,12.70
2022-09-23T01:38:27.166Z,12.70
2022-09-23T01:41:00.809Z,12.70
2022-09-23T01:43:48.440Z,12.70
2022-09-23T01:46:39.139Z,12.70
2022-09-23T01:49:14.012Z,12.70
2022-09-23T01:51:43.703Z,12.70
2022-09-23T01:54:14.402Z,12.60
2022-09-23T01:56:52.312Z,12.60
2022-09-23T01:59:29.341Z,12.60
2022-09-23T02:02:16.763Z,12.60
2022-09-23T02:04:51.633Z,12.60
2022-09-23T02:07:27.523Z,12.60
2022-09-23T02:10:05.932Z,12.60
2022-09-23T02:12:34.733Z,12.60
2022-09-23T02:15:04.438Z,12.60
2022-09-23T02:17:39.810Z,12.50
2022-09-23T02:20:07.577Z,12.50
2022-09-23T02:22:41.120Z,12.50
2022-09-23T02:25:10.007Z,12.50
2022-09-23T02:27:42.647Z,12.50
2022-09-23T02:30:21.566Z,12.50
2022-09-23T02:32:54.661Z,12.50
2022-09-23T02:35:33.408Z,12.50
2022-09-23T02:38:06.711Z,12.50
2022-09-23T02:40:34.620Z,12.50
2022-09-23T02:43:05.888Z,12.50
2022-09-23T02:45:34.004Z,12.50
2022-09-23T02:48:06.872Z,12.40
2022-09-23T02:50:34.388Z,12.40
2022-09-23T02:53:01.677Z,12.40
2022-09-23T02:55:32.555Z,12.40
2022-09-23T02:58:01.692Z,12.40
2022-09-23T03:00:39.666Z,12.40
2022-09-23T03:03:13.907Z,12.40
2022-09-23T03:05:46.317Z,12.40
2022-09-23T03:08:13.674Z,12.30
2022-09-23T03:10:56.740Z,12.30
2022-09-23T03:13:31.295Z,12.30
2022-09-23T03:16:03.416Z,12.30
2022-09-23T03:18:35.258Z,12.30
2022-09-23T03:21:05.465Z,12.20
2022-09-23T03:23:37.691Z,12.20
2022-09-23T03:26:08.556Z,12.20
2022-09-23T03:28:36.701Z,12.20
2022-09-23T03:31:04.839Z,12.10
2022-09-23T03:33:32.206Z,12.10
2022-09-23T03:36:25.313Z,12.10
2022-09-23T03:38:55.881Z,12.10
2022-09-23T03:41:33.120Z,12.00
2022-09-23T03:44:00.397Z,12.00
2022-09-23T03:46:30.165Z,12.00
2022-09-23T03:49:00.703Z,12.00
2022-09-23T03:51:27.907Z,11.90
2022-09-23T03:53:55.150Z,11.90
2022-09-23T03:56:22.524Z,11.90
2022-09-23T03:58:49.761Z,11.80
2022-09-23T04:01:17.057Z,11.80
2022-09-23T04:03:44.339Z,11.80
2022-09-23T04:06:21.197Z,11.80
2022-09-23T04:08:49.115Z,11.70
2022-09-23T04:11:16.333Z,11.70
2022-09-23T04:13:43.607Z,11.70
2022-09-23T04:16:10.949Z,11.70
2022-09-23T04:18:38.214Z,11.60
2022-09-23T04:21:05.501Z,11.60
2022-09-23T04:23:32.852Z,11.60
2022-09-23T04:26:00.275Z,11.60
2022-09-23T04:28:27.601Z,11.60
2022-09-23T04:30:56.296Z,11.50
2022-09-23T04:33:24.655Z,11.50
2022-09-23T04:35:52.375Z,11.50
2022-09-23T04:38:19.895Z,11.50
2022-09-23T04:40:47.200Z,11.50
2022-09-23T04:43:16.170Z,11.50
2022-09-23T04:45:44.044Z,11.40
2022-09-23T04:48:11.769Z,11.40
2022-09-23T04:50:39.604Z,11.40
2022-09-23T04:53:06.906Z,11.40
2022-09-23T04:55:34.251Z,11.40
2022-09-23T04:58:01.538Z,11.40
2022-09-23T05:00:28.925Z,11.40
2022-09-23T05:02:56.268Z,11.40
2022-09-23T05:05:24.472Z,11.40
2022-09-23T05:07:51.998Z,11.40
2022-09-23T05:10:19.215Z,11.40
2022-09-23T05:12:46.350Z,11.40
2022-09-23T05:15:15.356Z,11.40
2022-09-23T05:17:43.201Z,11.30
2022-09-23T05:20:11.219Z,11.30
2022-09-23T05:22:38.656Z,11.30
2022-09-23T05:25:06.427Z,11.30
2022-09-23T05:27:33.811Z,11.30
2022-09-23T05:30:01.505Z,11.30
2022-09-23T05:32:28.856Z,11.30
2022-09-23T05:34:56.177Z,11.30
2022-09-23T05:37:23.588Z,11.30
2022-09-23T05:39:50.886Z,11.30
2022-09-23T05:42:18.488Z,11.20
2022-09-23T05:44:47.348Z,11.20
2022-09-23T05:47:14.881Z,11.20
2022-09-23T05:49:58.999Z,11.20
2022-09-23T05:52:27.431Z,11.20
2022-09-23T05:54:54.800Z,11.20
2022-09-23T05:57:22.090Z,11.20
2022-09-23T05:59:49.300Z,11.20
2022-09-23T06:02:16.556Z,11.20
2022-09-23T06:04:44.215Z,11.20
2022-09-23T06:07:11.404Z,11.20
2022-09-23T06:09:38.707Z,11.20
2022-09-23T06:12:06.585Z,11.30
2022-09-23T06:14:33.906Z,11.30
2022-09-23T06:17:01.173Z,11.30
2022-09-23T06:19:28.371Z,11.40
2022-09-23T06:21:55.567Z,11.40
2022-09-23T06:24:27.248Z,11.40
2022-09-23T06:26:57.511Z,11.50
2022-09-23T06:29:24.802Z,11.50
2022-09-23T06:31:52.165Z,11.50
2022-09-23T06:34:20.353Z,11.60
2022-09-23T06:36:47.916Z,11.60
2022-09-23T06:39:15.671Z,11.70
2022-09-23T06:41:43.520Z,11.70
2022-09-23T06:44:14.983Z,11.70
2022-09-23T06:46:42.544Z,11.80
2022-09-23T06:49:10.830Z,11.80
2022-09-23T06:51:38.057Z,11.80
2022-09-23T06:54:05.388Z,11.90
2022-09-23T06:56:37.940Z,11.90
2022-09-23T06:59:07.029Z,12.00
2022-09-23T07:01:35.063Z,12.00
2022-09-23T07:04:02.629Z,12.10
2022-09-23T07:06:29.864Z,12.20
2022-09-23T07:08:57.131Z,12.20
2022-09-23T07:11:24.479Z,12.30
2022-09-23T07:13:51.769Z,12.40
2022-09-23T07:16:19.171Z,12.40
2022-09-23T07:18:47.245Z,12.50
2022-09-23T07:21:16.155Z,12.60
2022-09-23T07:23:44.361Z,12.70
2022-09-23T07:26:12.017Z,12.70
2022-09-23T07:28:39.427Z,12.80
2022-09-23T07:31:08.358Z,12.90
2022-09-23T07:33:36.796Z,12.90
2022-09-23T07:36:08.998Z,13.00
2022-09-23T07:38:39.461Z,13.10
2022-09-23T07:41:10.481Z,13.10
2022-09-23T07:43:38.093Z,13.20
2022-09-23T07:46:11.033Z,13.30
2022-09-23T07:48:38.741Z,13.40
2022-09-23T07:51:20.357Z,13.50
2022-09-23T07:53:51.396Z,13.60
2022-09-23T07:56:19.704Z,13.70
2022-09-23T07:59:00.426Z,13.80
2022-09-23T08:01:29.737Z,13.90
2022-09-23T08:03:57.993Z,14.00
2022-09-23T08:06:25.172Z,14.00
2022-09-23T08:08:53.416Z,14.10
2022-09-23T08:11:20.853Z,14.10
2022-09-23T08:13:48.082Z,14.20
2022-09-23T08:16:15.382Z,14.30
2022-09-23T08:18:48.152Z,14.40
2022-09-23T08:21:20.789Z,14.40
2022-09-23T08:23:48.154Z,14.50
2022-09-23T08:26:20.991Z,14.50
2022-09-23T08:28:49.691Z,14.60
2022-09-23T08:31:19.131Z,14.70
2022-09-23T08:33:46.488Z,14.70
2022-09-23T08:36:14.108Z,14.80
2022-09-23T08:38:41.333Z,14.90
2022-09-23T08:41:12.877Z,15.00
2022-09-23T08:43:42.858Z,15.10
2022-09-23T08:46:13.447Z,15.20
2022-09-23T08:48:44.572Z,15.30
2022-09-23T08:51:14.342Z,15.40
2022-09-23T08:53:42.519Z,15.40
2022-09-23T08:56:14.755Z,15.50
2022-09-23T08:58:41.946Z,15.60
2022-09-23T09:01:27.453Z,15.60
2022-09-23T09:03:56.655Z,15.60
2022-09-23T09:06:53.095Z,15.70
2022-09-23T09:09:27.273Z,15.80
2022-09-23T09:11:58.372Z,15.80
2022-09-23T09:14:29.925Z,15.90
2022-09-23T09:17:00.416Z,15.90
2022-09-23T09:19:44.968Z,16.00
2022-09-23T09:22:16.952Z,16.10
2022-09-23T09:24:46.085Z,16.20
2022-09-23T09:27:13.669Z,16.20
2022-09-23T09:29:42.906Z,16.30
2022-09-23T09:32:18.583Z,16.40
2022-09-23T09:34:50.031Z,16.50
2022-09-23T09:37:31.735Z,16.50
2022-09-23T09:39:59.468Z,16.60
2022-09-23T09:42:30.409Z,16.70
2022-09-23T09:45:03.067Z,16.70
2022-09-23T09:47:36.184Z,16.80
2022-09-23T09:50:08.085Z,16.80
2022-09-23T09:52:38.918Z,16.90
2022-09-23T09:55:13.044Z,17.00
2022-09-23T09:57:44.298Z,17.00
2022-09-23T10:00:26.944Z,17.10
2022-09-23T10:02:55.820Z,17.10
2022-09-23T10:05:27.185Z,17.20
2022-09-23T10:07:54.863Z,17.30
2022-09-23T10:10:33.239Z,17.40
2022-09-23T10:13:14.807Z,17.40
2022-09-23T10:15:44.950Z,17.50
2022-09-23T10:18:19.992Z,17.60
2022-09-23T10:20:48.272Z,17.60
2022-09-23T10:23:21.211Z,17.70
2022-09-23T10:26:02.062Z,17.80
2022-09-23T10:28:32.104Z,17.80
2022-09-23T10:31:11.266Z,17.90
2022-09-23T10:33:49.150Z,17.90
2022-09-23T10:36:17.645Z,18.00
2022-09-23T10:38:45.692Z,18.00
2022-09-23T10:41:36.980Z,18.00
2022-09-23T10:44:11.718Z,18.10
2022-09-23T10:46:47.305Z,18.20
2022-09-23T10:49:20.389Z,18.20
2022-09-23T10:51:56.641Z,18.30
2022-09-23T10:54:42.510Z,18.30
2022-09-23T10:57:43.619Z,18.30
2022-09-23T11:00:14.910Z,18.40
2022-09-23T11:02:52.799Z,18.40
2022-09-23T11:05:26.698Z,18.40
2022-09-23T11:08:09.307Z,18.50
2022-09-23T11:10:54.573Z,18.50
2022-09-23T11:13:38.347Z,18.60
2022-09-23T11:16:14.028Z,18.60
2022-09-23T11:19:00.040Z,18.70
2022-09-23T11:21:45.804Z,18.70
2022-09-23T11:24:28.483Z,18.70
2022-09-23T11:27:17.013Z,18.80
2022-09-23T11:29:53.567Z,18.80
2022-09-23T11:32:23.653Z,18.90
2022-09-23T11:34:54.253Z,18.90
2022-09-23T11:37:26.307Z,18.90
2022-09-23T11:39:57.771Z,18.90
2022-09-23T11:42:27.741Z,19.00
2022-09-23T11:45:08.539Z,19.00
2022-09-23T11:47:39.881Z,19.00
2022-09-23T11:50:15.338Z,19.10
2022-09-23T11:52:48.375Z,19.00
2022-09-23T11:55:23.191Z,19.10
2022-09-23T11:57:55.343Z,19.10
2022-09-23T12:00:23.919Z,19.10
2022-09-23T12:03:10.197Z,19.10
2022-09-23T12:05:44.982Z,19.20
2022-09-23T12:08:12.175Z,19.10
2022-09-23T12:10:43.964Z,19.20
2022-09-23T12:13:16.355Z,19.20
2022-09-23T12:16:03.906Z,19.20
2022-09-23T12:18:40.379Z,19.20
2022-09-23T12:21:38.713Z,19.30
2022-09-23T12:24:18.969Z,19.30
2022-09-23T12:26:50.453Z,19.40
2022-09-23T12:29:17.955Z,19.40
2022-09-23T12:31:47.366Z,19.40
2022-09-23T12:34:33.224Z,19.40
2022-09-23T12:37:02.453Z,19.50
2022-09-23T12:39:31.599Z,19.50
2022-09-23T12:42:00.394Z,19.50
2022-09-23T12:44:32.761Z,19.50
2022-09-23T12:47:32.285Z,19.50
2022-09-23T12:50:01.388Z,19.60
2022-09-23T12:52:31.124Z,19.60
2022-09-23T12:55:01.422Z,19.60
2022-09-23T12:57:34.639Z,19.70
2022-09-23T13:00:12.922Z,19.70
2022-09-23T13:03:07.941Z,19.70
2022-09-23T13:06:13.238Z,19.70
2022-09-23T13:08:41.675Z,19.70
2022-09-23T13:11:29.107Z,19.70
2022-09-23T13:13:57.852Z,19.70
2022-09-23T13:16:33.257Z,19.70
2022-09-23T13:19:07.465Z,19.70
2022-09-23T13:21:43.548Z,19.70
2022-09-23T13:24:13.730Z,19.70
2022-09-23T13:26:45.234Z,19.70
2022-09-23T13:29:18.998Z,19.80
2022-09-23T13:31:47.196Z,19.70
2022-09-23T13:34:16.537Z,19.80
2022-09-23T13:36:45.099Z,19.80
2022-09-23T13:39:16.241Z,19.70
2022-09-23T13:41:45.606Z,19.80
2022-09-23T13:44:20.294Z,19.80
2022-09-23T13:46:51.621Z,19.80
2022-09-23T13:49:29.910Z,19.80
2022-09-23T13:51:57.353Z,19.70
2022-09-23T13:54:31.333Z,19.80
2022-09-23T13:56:58.732Z,19.80
2022-09-23T13:59:30.034Z,19.70
2022-09-23T14:02:18.985Z,19.70
2022-09-23T14:04:47.333Z,19.70
2022-09-23T14:07:15.735Z,19.60
2022-09-23T14:09:48.651Z,19.60
2022-09-23T14:12:22.083Z,19.50
2022-09-23T14:14:51.423Z,19.50
2022-09-23T14:17:20.320Z,19.50
2022-09-23T14:19:47.780Z,19.50
2022-09-23T14:22:33.104Z,19.40
2022-09-23T14:25:00.406Z,19.40
2022-09-23T14:27:29.142Z,19.40
2022-09-23T14:29:56.787Z,19.30
2022-09-23T14:32:26.601Z,19.30
2022-09-23T14:34:59.799Z,19.20
2022-09-23T14:37:45.524Z,19.20
2022-09-23T14:40:14.508Z,19.20
2022-09-23T14:42:48.944Z,19.10
2022-09-23T14:45:18.789Z,19.20
2022-09-23T14:47:52.042Z,19.10
2022-09-23T14:50:40.681Z,19.10
2022-09-23T14:53:20.105Z,19.00
2022-09-23T14:55:48.454Z,19.00
2022-09-23T14:58:17.112Z,19.00
2022-09-23T15:01:00.160Z,18.90
2022-09-23T15:03:28.705Z,18.90
2022-09-23T15:05:58.271Z,18.90
2022-09-23T15:08:27.370Z,18.80
2022-09-23T15:10:54.685Z,18.80
2022-09-23T15:13:23.993Z,18.70
2022-09-23T15:15:55.713Z,18.70
2022-09-23T15:18:33.094Z,18.70
2022-09-23T15:21:01.983Z,18.60
2022-09-23T15:23:34.595Z,18.60
2022-09-23T15:26:05.936Z,18.60
2022-09-23T15:28:33.497Z,18.50
2022-09-23T15:31:00.718Z,18.50
2022-09-23T15:33:30.539Z,18.40
2022-09-23T15:35:58.589Z,18.40
2022-09-23T15:38:27.420Z,18.40
2022-09-23T15:40:54.691Z,18.30
2022-09-23T15:43:24.362Z,18.30
2022-09-23T15:45:58.906Z,18.30
2022-09-23T15:48:29.105Z,18.20
2022-09-23T15:50:56.436Z,18.20
2022-09-23T15:53:28.260Z,18.20
2022-09-23T15:55:55.915Z,18.20
2022-09-23T15:58:23.845Z,18.10
2022-09-23T16:00:56.189Z,18.10
2022-09-23T16:03:28.793Z,18.10
2022-09-23T16:06:03.446Z,18.00
2022-09-23T16:08:33.336Z,18.00
2022-09-23T16:11:00.883Z,18.00
2022-09-23T16:13:28.094Z,17.90
2022-09-23T16:15:56.505Z,17.90
2022-09-23T16:18:23.891Z,17.90
2022-09-23T16:20:51.464Z,17.80
2022-09-23T16:23:35.311Z,17.80
2022-09-23T16:26:07.718Z,17.80
2022-09-23T16:28:34.934Z,17.80
2022-09-23T16:31:02.210Z,17.70
2022-09-23T16:33:29.411Z,17.70
2022-09-23T16:35:57.964Z,17.70
2022-09-23T16:38:25.142Z,17.60
2022-09-23T16:40:53.095Z,17.70
2022-09-23T16:43:20.371Z,17.60
2022-09-23T16:45:48.139Z,17.60
2022-09-23T16:48:19.785Z,17.60
2022-09-23T16:50:48.250Z,17.60
2022-09-23T16:53:18.273Z,17.50
2022-09-23T16:55:46.260Z,17.50
2022-09-23T16:58:13.560Z,17.50
2022-09-23T17:00:59.769Z,17.50
2022-09-23T17:03:43.371Z,17.40
2022-09-23T17:06:17.896Z,17.40
2022-09-23T17:08:48.389Z,17.40
2022-09-23T17:11:17.009Z,17.40
2022-09-23T17:13:44.721Z,17.40
2022-09-23T17:16:21.456Z,17.40
2022-09-23T17:18:48.803Z,17.40
2022-09-23T17:21:16.073Z,17.40
2022-09-23T17:23:43.275Z,17.40
2022-09-23T17:26:12.592Z,17.30
2022-09-23T17:28:39.986Z,17.30
2022-09-23T17:31:07.825Z,17.30
2022-09-23T17:33:38.265Z,17.30
2022-09-23T17:36:08.195Z,17.30
2022-09-23T17:38:41.527Z,17.30
2022-09-23T17:41:09.413Z,17.30
2022-09-23T17:43:36.755Z,17.30
2022-09-23T17:46:08.577Z,17.20
2022-09-23T17:48:39.240Z,17.20
2022-09-23T17:51:08.029Z,17.20
2022-09-23T17:53:37.200Z,17.20
2022-09-23T17:56:09.047Z,17.20
2022-09-23T17:58:37.151Z,17.20
2022-09-23T18:01:05.396Z,17.20
2022-09-23T18:03:32.773Z,17.20
2022-09-23T18:06:10.762Z,17.10
2022-09-23T18:08:39.595Z,17.10
2022-09-23T18:11:14.278Z,17.10
2022-09-23T18:13:42.339Z,17.10
2022-09-23T18:16:10.974Z,17.10
2022-09-23T18:18:38.298Z,17.10
2022-09-23T18:21:05.809Z,17.10
2022-09-23T18:23:33.039Z,17.10
2022-09-23T18:26:00.376Z,17.10
2022-09-23T18:28:32.656Z,17.00
2022-09-23T18:31:02.137Z,17.00
2022-09-23T18:33:29.391Z,17.00
2022-09-23T18:35:59.507Z,17.00
2022-09-23T18:38:26.761Z,17.00
2022-09-23T18:40:57.323Z,17.00
2022-09-23T18:43:25.923Z,17.00
2022-09-23T18:46:13.647Z,17.00
2022-09-23T18:49:00.036Z,17.00
2022-09-23T18:51:30.320Z,17.00
2022-09-23T18:53:58.838Z,17.00
2022-09-23T18:56:27.505Z,16.90
2022-09-23T18:58:55.697Z,17.00
2022-09-23T19:01:23.953Z,17.00
2022-09-23T19:03:55.312Z,17.00
2022-09-23T19:06:23.088Z,16.90
2022-09-23T19:08:51.564Z,16.90
2022-09-23T19:11:19.449Z,16.90
2022-09-23T19:13:52.423Z,16.90
2022-09-23T19:16:19.839Z,16.90
2022-09-23T19:18:47.221Z,16.90
2022-09-23T19:21:15.338Z,16.90
2022-09-23T19:23:49.602Z,16.90
2022-09-23T19:26:18.154Z,16.90
2022-09-23T19:28:56.259Z,16.90
2022-09-23T19:31:25.438Z,16.90
2022-09-23T19:34:11.715Z,16.90
2022-09-23T19:36:42.973Z,16.90
2022-09-23T19:39:20.452Z,16.90
2022-09-23T19:41:48.590Z,16.90
2022-09-23T19:44:16.761Z,16.90
2022-09-23T19:46:55.003Z,16.90
2022-09-23T19:49:24.902Z,16.80
2022-09-23T19:51:56.021Z,16.80
2022-09-23T19:54:26.202Z,16.80
2022-09-23T19:56:54.841Z,16.80
2022-09-23T19:59:22.090Z,16.80
2022-09-23T20:01:49.492Z,16.80
2022-09-23T20:04:17.272Z,16.80
2022-09-23T20:06:46.252Z,16.80
2022-09-23T20:09:13.709Z,16.80
2022-09-23T20:11:43.161Z,16.80
2022-09-23T20:14:10.677Z,16.80
2022-09-23T20:16:38.137Z,16.80
2022-09-23T20:19:05.945Z,16.80
2022-09-23T20:21:33.946Z,16.80
2022-09-23T20:24:01.735Z,16.80
2022-09-23T20:26:47.616Z,16.80
2022-09-23T20:29:14.906Z,16.80
2022-09-23T20:31:42.250Z,16.80
2022-09-23T20:34:11.013Z,16.80
2022-09-23T20:36:39.732Z,16.80
2022-09-23T20:39:07.124Z,16.80
2022-09-23T20:41:37.620Z,16.80
2022-09-23T20:44:07.246Z,16.80
2022-09-23T20:46:34.853Z,16.80
2022-09-23T20:49:02.470Z,16.80
2022-09-23T20:51:29.748Z,16.80
2022-09-23T20:53:56.997Z,16.80
2022-09-23T20:56:25.369Z,16.80
2022-09-23T20:58:54.200Z,16.70
2022-09-23T21:01:21.528Z,16.80
2022-09-23T21:03:50.235Z,16.80
2022-09-23T21:06:19.146Z,16.70
2022-09-23T21:08:46.726Z,16.80
2022-09-23T21:11:15.217Z,16.80
2022-09-23T21:13:49.372Z,16.80
2022-09-23T21:16:17.490Z,16.80
2022-09-23T21:18:45.767Z,16.80
2022-09-23T21:21:14.593Z,16.80
2022-09-23T21:23:42.955Z,16.80
2022-09-23T21:26:11.509Z,16.80
2022-09-23T21:28:40.284Z,16.80
2022-09-23T21:31:11.812Z,16.80
2022-09-23T21:33:39.274Z,16.80
2022-09-23T21:36:07.222Z,16.80
2022-09-23T21:38:35.971Z,16.80
2022-09-23T21:41:04.589Z,16.80
2022-09-23T21:43:33.732Z,16.80
2022-09-23T21:46:02.544Z,16.80
2022-09-23T21:48:29.690Z,16.80
2022-09-23T21:50:57.837Z,16.80
2022-09-23T21:53:25.343Z,16.80
2022-09-23T21:55:52.756Z,16.80
2022-09-23T21:58:20.049Z,16.80
2022-09-23T22:00:47.393Z,16.80
2022-09-23T22:03:14.760Z,16.80
2022-09-23T22:05:44.196Z,16.80
2022-09-23T22:08:11.482Z,16.70
2022-09-23T22:10:38.762Z,16.80
2022-09-23T22:13:12.576Z,16.70
2022-09-23T22:15:40.329Z,16.80
2022-09-23T22:18:08.152Z,16.70
2022-09-23T22:20:35.423Z,16.70
2022-09-23T22:23:02.683Z,16.80
2022-09-23T22:25:29.998Z,16.70
2022-09-23T22:28:15.527Z,16.70
2022-09-23T22:31:01.477Z,16.80
2022-09-23T22:33:28.751Z,16.70
2022-09-23T22:36:02.559Z,16.70
2022-09-23T22:38:31.364Z,16.80
2022-09-23T22:41:00.066Z,16.70
2022-09-23T22:43:27.319Z,16.70
2022-09-23T22:45:54.570Z,16.70
2022-09-23T22:48:21.813Z,16.70
2022-09-23T22:50:49.075Z,16.70
2022-09-23T22:53:16.999Z,16.70
2022-09-23T22:55:44.251Z,16.70
2022-09-23T22:58:31.028Z,16.70
2022-09-23T23:00:58.681Z,16.80
2022-09-23T23:03:27.171Z,16.70
2022-09-23T23:05:57.768Z,16.80
2022-09-23T23:08:25.037Z,16.80
2022-09-23T23:10:52.295Z,16.80
2022-09-23T23:13:20.449Z,16.80
2022-09-23T23:15:48.249Z,16.80
2022-09-23T23:18:15.846Z,16.80
2022-09-23T23:20:42.992Z,16.80
2022-09-23T23:23:10.259Z,16.80
2022-09-23T23:25:37.531Z,16.80
2022-09-23T23:28:06.028Z,16.80
2022-09-23T23:30:33.817Z,16.80
2022-09-23T23:33:01.125Z,16.80
2022-09-23T23:35:28.385Z,16.80
2022-09-23T23:37:55.577Z,16.80
2022-09-23T23:40:23.047Z,16.80
2022-09-23T23:42:50.283Z,16.80
2022-09-23T23:45:17.607Z,16.80
2022-09-23T23:47:45.497Z,16.80
2022-09-23T23:50:12.756Z,16.80
2022-09-23T23:52:39.899Z,16.80
2022-09-23T23:55:07.378Z,16.80
2022-09-23T23:57:34.882Z,16.90
